Time;durP1;ratioP1;P1;durP2;ratioP2;P2;SDS_P1;SDS_P2;PMS_P1;PMS_P2;Temp;Humidity;BMP_temperature;BMP_pressure;BME280_temperature;BME280_humidity;BME280_pressure;Samples;Min_cycle;Max_cycle;Signal;HPM_P1;HPM_P2
2022/04/03 00:01:10;;;;;;;0.93;0.63;;;;;;;25.20;25.53;102165.88;4936230;29;20028;-45
2022/04/03 00:03:38;;;;;;;3.60;0.68;;;;;;;25.21;25.32;102167.63;4935758;29;20050;-50
2022/04/03 00:06:07;;;;;;;1.35;0.90;;;;;;;25.14;25.63;102164.84;4935934;29;20028;-50
2022/04/03 00:08:35;;;;;;;2.45;0.70;;;;;;;25.09;25.79;102168.19;4935860;29;20043;-47
2022/04/03 00:11:04;;;;;;;2.45;0.90;;;;;;;25.11;25.62;102167.38;4936039;29;20034;-46
2022/04/03 00:13:32;;;;;;;1.40;0.70;;;;;;;25.13;25.46;102159.56;4935107;29;20028;-43
2022/04/03 00:16:01;;;;;;;1.80;0.75;;;;;;;25.10;25.56;102162.97;4935711;29;20099;-43
2022/04/03 00:18:29;;;;;;;1.70;0.70;;;;;;;25.15;25.38;102171.00;4935537;29;20031;-43
2022/04/03 00:20:58;;;;;;;1.50;0.68;;;;;;;25.19;25.41;102175.47;4935719;29;20040;-44
2022/04/03 00:23:26;;;;;;;1.65;0.70;;;;;;;25.17;25.25;102174.53;4935573;29;20463;-45
2022/04/03 00:25:55;;;;;;;1.77;0.80;;;;;;;25.08;25.63;102171.66;4935565;29;20027;-43
2022/04/03 00:28:26;;;;;;;1.85;0.70;;;;;;;25.11;25.56;102170.00;4935264;29;20034;-43
2022/04/03 00:30:54;;;;;;;1.23;0.50;;;;;;;25.12;25.14;102174.41;4935995;29;20107;-43
2022/04/03 00:33:22;;;;;;;1.52;0.90;;;;;;;25.08;25.74;102182.16;4935802;29;20095;-45
2022/04/03 00:35:50;;;;;;;1.10;0.60;;;;;;;25.03;25.62;102184.66;4935675;29;20102;-44
2022/04/03 00:38:19;;;;;;;1.67;0.60;;;;;;;25.06;25.69;102179.50;4935891;29;20079;-45
2022/04/03 00:40:49;;;;;;;1.63;0.73;;;;;;;25.08;25.33;102185.66;4935497;29;20051;-43
2022/04/03 00:43:17;;;;;;;2.00;0.95;;;;;;;25.06;25.26;102174.25;4935598;29;20046;-44
2022/04/03 00:45:47;;;;;;;1.50;0.77;;;;;;;25.08;25.58;102179.53;4935520;29;20090;-44
2022/04/03 00:48:16;;;;;;;1.17;0.60;;;;;;;25.08;25.11;102175.16;4935552;29;20020;-44
2022/04/03 00:50:45;;;;;;;1.65;0.70;;;;;;;25.08;25.52;102188.28;4935430;29;20084;-44
2022/04/03 00:53:14;;;;;;;0.88;0.55;;;;;;;25.03;25.34;102177.66;4938306;29;20059;-43
2022/04/03 00:55:43;;;;;;;1.98;1.08;;;;;;;25.07;25.26;102180.38;4938483;29;20044;-44
2022/04/03 00:58:12;;;;;;;1.17;0.77;;;;;;;24.98;25.45;102186.28;4938847;29;20039;-43
2022/04/03 01:00:40;;;;;;;1.65;0.70;;;;;;;24.99;25.61;102182.81;4938854;29;20030;-44
2022/04/03 01:03:09;;;;;;;1.98;0.52;;;;;;;25.04;25.52;102175.94;4921841;29;20024;-43
2022/04/03 01:05:37;;;;;;;1.02;0.40;;;;;;;25.00;25.12;102174.09;4938405;29;20474;-43
2022/04/03 01:08:07;;;;;;;1.02;0.80;;;;;;;25.00;25.38;102184.56;4938045;29;20075;-44
2022/04/03 01:10:35;;;;;;;1.17;0.68;;;;;;;24.92;25.50;102176.50;4938245;29;20496;-50
2022/04/03 01:13:02;;;;;;;1.63;0.50;;;;;;;24.92;25.23;102183.47;4938741;29;20031;-43
2022/04/03 01:15:33;;;;;;;1.40;0.70;;;;;;;24.93;25.06;102185.25;4938926;29;20484;-46
2022/04/03 01:18:01;;;;;;;1.20;0.70;;;;;;;24.97;25.39;102182.78;4938670;29;20432;-44
2022/04/03 01:20:30;;;;;;;1.15;0.55;;;;;;;24.90;25.41;102180.81;4938556;29;20448;-44
2022/04/03 01:22:58;;;;;;;1.73;0.70;;;;;;;24.95;25.24;102183.56;4938413;29;20024;-45
2022/04/03 01:25:27;;;;;;;1.30;0.65;;;;;;;24.97;24.96;102188.03;4938682;29;20111;-47
2022/04/03 01:27:56;;;;;;;0.98;0.57;;;;;;;24.93;25.47;102187.88;4938502;29;20057;-47
2022/04/03 01:30:24;;;;;;;0.77;0.60;;;;;;;24.91;25.45;102182.59;4938049;29;20142;-44
2022/04/03 01:32:53;;;;;;;1.98;0.55;;;;;;;24.85;25.40;102183.31;4937890;29;20034;-44
2022/04/03 01:35:22;;;;;;;1.40;0.73;;;;;;;24.94;25.34;102185.31;4938208;29;20095;-44
2022/04/03 01:37:51;;;;;;;0.80;0.50;;;;;;;24.87;25.35;102178.09;4938121;29;20043;-44
2022/04/03 01:40:19;;;;;;;1.75;0.60;;;;;;;24.87;25.26;102176.38;4938043;29;20039;-43
2022/04/03 01:42:48;;;;;;;0.90;0.55;;;;;;;24.91;25.44;102182.59;4937723;29;20023;-43
2022/04/03 01:45:16;;;;;;;0.95;0.70;;;;;;;24.86;25.18;102181.56;4938227;29;20059;-45
2022/04/03 01:47:45;;;;;;;1.45;0.70;;;;;;;24.80;25.53;102182.28;4938053;29;20030;-45
2022/04/03 01:50:14;;;;;;;1.73;1.00;;;;;;;24.74;25.53;102179.47;4938140;29;20031;-44
2022/04/03 01:52:42;;;;;;;1.38;0.80;;;;;;;24.79;25.23;102177.88;4920798;29;20031;-45
2022/04/03 01:55:11;;;;;;;2.15;0.50;;;;;;;24.76;25.53;102169.91;4938164;29;20027;-45
2022/04/03 01:57:39;;;;;;;1.98;0.60;;;;;;;24.80;25.36;102182.28;4937910;29;20467;-45
2022/04/03 02:00:10;;;;;;;0.75;0.50;;;;;;;24.75;25.63;102181.25;4937668;29;20031;-44
2022/04/03 02:02:39;;;;;;;1.02;0.55;;;;;;;24.73;25.31;102181.22;4937523;29;20028;-43
2022/04/03 02:05:09;;;;;;;0.80;0.60;;;;;;;24.67;25.50;102180.97;4937296;29;20024;-43
2022/04/03 02:07:38;;;;;;;1.33;0.80;;;;;;;24.66;25.36;102183.56;4937499;29;20032;-44
2022/04/03 02:10:09;;;;;;;0.85;0.57;;;;;;;24.68;25.55;102182.75;4937738;29;20126;-45
2022/04/03 02:12:37;;;;;;;0.77;0.55;;;;;;;24.71;25.36;102182.03;4937357;29;20027;-45
2022/04/03 02:15:06;;;;;;;0.95;0.60;;;;;;;24.75;25.49;102178.63;4937246;29;20032;-44
2022/04/03 02:17:35;;;;;;;1.48;0.60;;;;;;;24.63;25.49;102175.59;4937347;29;20031;-44
2022/04/03 02:20:05;;;;;;;0.95;0.70;;;;;;;24.67;25.51;102177.50;4937517;29;20035;-44
2022/04/03 02:22:33;;;;;;;1.38;0.70;;;;;;;24.70;25.52;102175.88;4920756;29;20024;-45
2022/04/03 02:25:03;;;;;;;1.17;0.65;;;;;;;24.64;25.36;102170.44;4937513;29;20027;-44
2022/04/03 02:27:32;;;;;;;0.70;0.60;;;;;;;24.63;25.54;102170.38;4920328;29;20474;-45
2022/04/03 02:30:01;;;;;;;1.25;0.57;;;;;;;24.62;25.52;102172.13;4937396;29;20044;-44
2022/04/03 02:32:29;;;;;;;1.02;0.55;;;;;;;24.58;25.13;102181.59;4937059;29;20498;-44
2022/04/03 02:34:58;;;;;;;1.20;0.57;;;;;;;24.62;25.18;102173.84;4937223;29;20039;-44
2022/04/03 02:37:27;;;;;;;1.75;0.82;;;;;;;24.62;25.15;102177.34;4937371;29;20061;-45
2022/04/03 02:39:55;;;;;;;1.23;0.60;;;;;;;24.69;24.92;102174.06;4936973;29;20035;-44
2022/04/03 02:42:24;;;;;;;1.02;0.57;;;;;;;24.68;25.03;102171.41;4919992;29;20390;-45
2022/04/03 02:44:53;;;;;;;1.13;0.77;;;;;;;24.55;25.47;102173.66;4936892;29;20055;-44
2022/04/03 02:47:22;;;;;;;0.80;0.50;;;;;;;24.51;25.30;102179.66;4936780;29;20119;-44
2022/04/03 02:49:51;;;;;;;0.70;0.40;;;;;;;24.54;25.40;102182.38;4936946;29;20027;-44
2022/04/03 02:52:20;;;;;;;0.90;0.50;;;;;;;24.51;25.19;102178.75;4937100;29;20035;-43
2022/04/03 02:54:49;;;;;;;1.05;0.50;;;;;;;24.49;25.47;102181.34;4937192;29;20555;-45
2022/04/03 02:57:18;;;;;;;1.17;0.55;;;;;;;24.59;25.45;102185.13;4919879;29;20031;-44
2022/04/03 02:59:47;;;;;;;1.23;0.60;;;;;;;24.51;25.33;102179.66;4936589;29;20552;-46
2022/04/03 03:02:16;;;;;;;1.92;0.65;;;;;;;24.54;25.43;102186.72;4936883;29;20046;-43
2022/04/03 03:04:44;;;;;;;1.08;0.70;;;;;;;24.49;25.13;102178.72;4936641;29;20390;-47
2022/04/03 03:07:13;;;;;;;1.83;0.63;;;;;;;24.55;25.13;102181.53;4936537;29;20098;-45
2022/04/03 03:09:42;;;;;;;2.53;0.50;;;;;;;24.58;25.05;102181.59;4936443;29;20027;-44
2022/04/03 03:12:10;;;;;;;1.05;0.50;;;;;;;24.57;24.85;102187.69;4936679;29;20426;-43
2022/04/03 03:14:39;;;;;;;0.75;0.60;;;;;;;24.60;24.95;102186.00;4936541;29;20031;-43
2022/04/03 03:17:08;;;;;;;0.93;0.50;;;;;;;24.57;24.97;102184.19;4935972;29;20028;-45
2022/04/03 03:19:36;;;;;;;1.25;0.80;;;;;;;24.54;25.14;102186.72;4936043;29;20038;-49
2022/04/03 03:22:07;;;;;;;0.70;0.45;;;;;;;24.53;25.14;102188.47;4936434;29;20470;-45
2022/04/03 03:24:36;;;;;;;0.50;0.40;;;;;;;24.52;24.97;102183.16;4936405;29;20123;-45
2022/04/03 03:27:04;;;;;;;0.98;0.50;;;;;;;24.49;25.30;102189.22;4935920;29;20087;-44
2022/04/03 03:29:33;;;;;;;1.23;0.52;;;;;;;24.50;25.23;102193.63;4935914;29;20043;-44
2022/04/03 03:32:02;;;;;;;1.48;0.90;;;;;;;24.46;25.15;102198.72;4936109;29;20165;-44
2022/04/03 03:34:30;;;;;;;1.95;1.05;;;;;;;24.44;25.00;102193.41;4936458;29;20082;-45
2022/04/03 03:36:59;;;;;;;1.02;0.60;;;;;;;24.40;24.97;102195.06;4919280;29;20032;-45
2022/04/03 03:39:27;;;;;;;1.42;0.85;;;;;;;24.46;25.00;102199.59;4936411;29;20099;-46
2022/04/03 03:41:56;;;;;;;1.42;0.60;;;;;;;24.43;25.26;102200.41;4935988;29;20123;-48
2022/04/03 03:44:25;;;;;;;1.50;0.52;;;;;;;24.44;25.40;102203.91;4935749;29;20055;-44
2022/04/03 03:46:53;;;;;;;2.30;0.95;;;;;;;24.46;25.39;102201.34;4935883;29;20028;-47
2022/04/03 03:49:23;;;;;;;0.73;0.50;;;;;;;24.42;25.21;102201.25;4935909;29;20059;-44
2022/04/03 03:51:51;;;;;;;1.25;0.75;;;;;;;24.46;24.99;102202.22;4936052;29;20035;-43
2022/04/03 03:54:20;;;;;;;1.00;0.40;;;;;;;24.46;25.22;102203.97;4936407;29;20020;-47
2022/04/03 03:56:49;;;;;;;1.52;0.65;;;;;;;24.46;25.27;102207.47;4936219;29;20450;-43
2022/04/03 03:59:17;;;;;;;1.05;0.70;;;;;;;24.51;25.00;102207.59;4936066;29;20026;-45
2022/04/03 04:01:46;;;;;;;1.13;0.55;;;;;;;24.47;24.98;102214.50;4935646;29;20043;-44
2022/04/03 04:04:14;;;;;;;0.90;0.50;;;;;;;24.44;25.41;102217.03;4936048;29;20038;-43
2022/04/03 04:06:43;;;;;;;1.05;0.60;;;;;;;24.41;25.44;102219.53;4935911;29;20027;-47
2022/04/03 04:09:12;;;;;;;1.50;0.60;;;;;;;24.46;25.26;102214.47;4935580;29;20036;-44
2022/04/03 04:11:41;;;;;;;0.90;0.50;;;;;;;24.47;24.77;102225.00;4935884;29;20036;-48
2022/04/03 04:14:09;;;;;;;1.35;0.63;;;;;;;24.49;24.93;102222.44;4935958;29;20381;-44
2022/04/03 04:16:38;;;;;;;2.25;0.68;;;;;;;24.47;25.20;102213.63;4935834;29;20389;-44
2022/04/03 04:19:06;;;;;;;1.17;0.77;;;;;;;24.50;25.31;102218.94;4935851;29;20031;-44
2022/04/03 04:21:34;;;;;;;1.15;0.60;;;;;;;24.53;25.07;102219.94;4935635;29;20031;-45
2022/04/03 04:24:02;;;;;;;1.40;0.77;;;;;;;24.51;25.10;102220.72;4935480;29;20103;-44
2022/04/03 04:26:31;;;;;;;0.98;0.60;;;;;;;24.50;25.21;102229.44;4918913;29;20035;-46
2022/04/03 04:28:59;;;;;;;0.93;0.60;;;;;;;24.53;25.29;102230.44;4939151;29;20501;-43
2022/04/03 04:31:28;;;;;;;1.95;0.63;;;;;;;24.54;25.23;102229.59;4939363;29;20130;-51
2022/04/03 04:33:57;;;;;;;2.00;0.70;;;;;;;24.53;25.03;102235.69;4939417;29;20111;-46
2022/04/03 04:36:26;;;;;;;1.50;0.60;;;;;;;24.53;24.87;102233.06;4939238;29;20051;-51
2022/04/03 04:38:54;;;;;;;1.15;0.90;;;;;;;24.47;24.87;102217.13;4939118;29;20086;-44
2022/04/03 04:41:23;;;;;;;2.30;1.40;;;;;;;24.55;25.19;102234.00;4922111;29;20032;-44
2022/04/03 04:43:52;;;;;;;1.48;0.88;;;;;;;24.54;25.14;102237.47;4939326;29;20032;-51
2022/04/03 04:46:21;;;;;;;1.85;0.63;;;;;;;24.56;24.85;102234.88;4922400;29;20477;-45
2022/04/03 04:48:49;;;;;;;1.58;0.90;;;;;;;24.52;24.96;102233.00;4939300;29;20031;-47
2022/04/03 04:51:18;;;;;;;2.10;0.80;;;;;;;24.58;24.75;102238.44;4939035;29;20056;-45
2022/04/03 04:53:47;;;;;;;4.30;1.15;;;;;;;24.56;24.75;102237.50;4921511;29;20040;-45
2022/04/03 04:56:15;;;;;;;1.85;0.60;;;;;;;24.55;25.08;102238.34;4939085;29;20087;-49
2022/04/03 04:58:44;;;;;;;4.03;0.98;;;;;;;24.55;25.18;102235.72;4938764;29;20087;-45
2022/04/03 05:01:12;;;;;;;5.60;0.93;;;;;;;24.55;25.18;102231.38;4921730;29;20079;-50
2022/04/03 05:03:41;;;;;;;2.70;0.80;;;;;;;24.55;24.77;102233.09;4938933;29;20028;-47
2022/04/03 05:06:12;;;;;;;1.35;0.80;;;;;;;24.54;25.20;102236.56;4938566;29;20028;-48
2022/04/03 05:08:41;;;;;;;3.15;0.90;;;;;;;24.54;25.32;102240.09;4938810;29;20027;-48
2022/04/03 05:11:10;;;;;;;5.47;0.95;;;;;;;24.58;25.08;102251.56;4939038;29;20443;-44
2022/04/03 05:13:39;;;;;;;2.00;1.00;;;;;;;24.56;25.25;102250.63;4938931;29;20023;-49
2022/04/03 05:16:08;;;;;;;6.18;1.35;;;;;;;24.57;24.82;102244.53;4938529;29;20496;-49
2022/04/03 05:18:37;;;;;;;2.25;0.90;;;;;;;24.51;24.83;102245.25;4906402;29;20031;-43
2022/04/03 05:21:08;;;;;;;2.63;0.85;;;;;;;24.46;24.90;102245.94;4938648;29;20122;-45
2022/04/03 05:23:36;;;;;;;1.50;0.80;;;;;;;24.47;25.08;102234.63;4938134;29;20556;-47
2022/04/03 05:26:05;;;;;;;3.35;1.02;;;;;;;24.39;25.41;102232.63;4938473;29;20047;-46
2022/04/03 05:28:35;;;;;;;4.03;0.93;;;;;;;24.39;25.18;102248.38;4938086;29;20138;-43
2022/04/03 05:31:04;;;;;;;6.55;0.88;;;;;;;24.40;25.04;102244.91;4921382;29;20034;-44
2022/04/03 05:33:33;;;;;;;4.72;1.17;;;;;;;24.30;24.79;102242.84;4938314;29;20040;-46
2022/04/03 05:36:01;;;;;;;3.53;1.13;;;;;;;24.34;24.92;102257.81;4938317;29;20020;-43
2022/04/03 05:38:30;;;;;;;6.15;1.02;;;;;;;24.39;24.87;102256.22;4921359;29;20481;-45
2022/04/03 05:40:58;;;;;;;4.25;1.00;;;;;;;24.36;25.12;102263.13;4938263;29;20079;-43
2022/04/03 05:43:27;;;;;;;4.05;0.93;;;;;;;24.30;24.82;102260.28;4938010;29;20024;-44
2022/04/03 05:45:55;;;;;;;5.85;1.30;;;;;;;24.32;25.15;102271.72;4938120;29;20039;-50
2022/04/03 05:48:23;;;;;;;4.60;1.30;;;;;;;24.33;25.25;102279.63;4938039;29;20366;-44
2022/04/03 05:50:52;;;;;;;3.83;1.25;;;;;;;24.33;25.24;102282.25;4938331;29;20481;-44
2022/04/03 05:53:21;;;;;;;2.30;1.10;;;;;;;24.31;25.23;102273.47;4938033;29;20039;-47
2022/04/03 05:55:50;;;;;;;2.58;1.00;;;;;;;24.34;24.82;102281.41;4920895;29;20032;-46
2022/04/03 05:58:18;;;;;;;8.80;1.65;;;;;;;24.36;24.80;102284.09;4937929;29;20034;-44
2022/04/03 06:00:47;;;;;;;9.00;2.05;;;;;;;24.31;24.81;102290.91;4937861;29;20036;-46
2022/04/03 06:03:16;;;;;;;8.10;1.60;;;;;;;24.31;24.97;102290.91;4938062;29;20020;-50
2022/04/03 06:05:45;;;;;;;5.93;1.40;;;;;;;24.34;24.97;102286.66;4937908;29;20426;-43
2022/04/03 06:08:14;;;;;;;5.22;1.40;;;;;;;24.37;25.12;102294.63;4937390;29;20039;-48
2022/04/03 06:10:43;;;;;;;8.55;1.42;;;;;;;24.27;24.91;102285.56;4937633;29;20031;-49
2022/04/03 06:13:13;;;;;;;7.03;1.42;;;;;;;24.31;25.14;102291.81;4937459;29;20389;-44
2022/04/03 06:15:47;;;;;;;11.85;1.50;;;;;;;24.30;24.91;102290.03;4937236;29;20024;-46
2022/04/03 06:18:18;;;;;;;15.38;1.98;;;;;;;24.35;25.08;102287.56;4937523;29;20024;-44
2022/04/03 06:20:47;;;;;;;7.30;1.63;;;;;;;24.32;25.34;102285.75;4937084;29;20541;-46
2022/04/03 06:23:18;;;;;;;11.15;2.15;;;;;;;24.33;25.29;102286.63;4937546;29;20430;-47
2022/04/03 06:25:49;;;;;;;6.47;1.60;;;;;;;24.36;24.96;102290.22;4937313;29;20226;-43
2022/04/03 06:28:17;;;;;;;8.90;1.48;;;;;;;24.32;25.11;102285.75;4936198;29;20024;-44
2022/04/03 06:30:46;;;;;;;5.72;1.40;;;;;;;24.30;25.43;102291.75;4901402;29;20062;-49
2022/04/03 06:33:16;;;;;;;4.30;1.30;;;;;;;24.34;25.39;102291.91;4918318;29;20050;-49
2022/04/03 06:35:46;;;;;;;2.40;1.13;;;;;;;24.35;25.18;102298.94;4918278;29;20039;-49
2022/04/03 06:38:15;;;;;;;4.72;1.20;;;;;;;24.35;25.01;102300.69;4918445;29;20465;-43
2022/04/03 06:40:55;;;;;;;3.88;1.13;;;;;;;24.40;25.21;102299.97;4918386;29;20043;-46
2022/04/03 06:43:26;;;;;;;6.25;1.40;;;;;;;24.41;24.86;102293.00;4918229;29;20499;-44
2022/04/03 06:45:54;;;;;;;6.75;1.55;;;;;;;24.40;25.12;102299.97;4917919;29;20439;-48
2022/04/03 06:48:24;;;;;;;5.13;0.98;;;;;;;24.49;25.04;102306.38;4901086;29;20028;-47
2022/04/03 06:50:52;;;;;;;2.70;1.02;;;;;;;24.49;25.14;102306.38;4917745;29;20048;-44
2022/04/03 06:53:20;;;;;;;5.43;1.52;;;;;;;24.53;25.22;102311.78;4917836;29;20032;-49
2022/04/03 06:55:49;;;;;;;4.90;1.33;;;;;;;24.56;25.06;102311.88;4918066;29;20111;-45
2022/04/03 06:58:17;;;;;;;5.65;1.20;;;;;;;24.61;25.01;102312.00;4917612;29;20036;-44
2022/04/03 07:00:46;;;;;;;5.40;1.08;;;;;;;24.59;25.16;102318.94;4901301;29;20493;-44
2022/04/03 07:03:15;;;;;;;4.25;1.00;;;;;;;24.60;25.31;102320.72;4917798;29;20115;-44
2022/04/03 07:05:43;;;;;;;2.15;0.80;;;;;;;24.64;25.36;102324.31;4901326;29;20024;-48
2022/04/03 07:08:12;;;;;;;4.07;1.10;;;;;;;24.66;25.67;102320.03;4917166;29;20040;-44
2022/04/03 07:10:40;;;;;;;4.20;1.10;;;;;;;24.66;25.48;102325.28;4917306;29;20474;-44
2022/04/03 07:13:10;;;;;;;2.92;0.88;;;;;;;24.68;25.55;102315.72;4917470;29;20056;-48
2022/04/03 07:15:39;;;;;;;6.95;0.90;;;;;;;24.77;25.29;102323.03;4917235;29;20024;-47
2022/04/03 07:18:08;;;;;;;2.97;0.93;;;;;;;24.78;25.38;102323.06;4917566;29;20084;-44
2022/04/03 07:20:36;;;;;;;3.20;0.95;;;;;;;24.83;25.80;102328.44;4917461;29;20032;-45
2022/04/03 07:23:05;;;;;;;2.42;0.90;;;;;;;24.87;25.54;102327.69;4917562;29;20119;-47
2022/04/03 07:25:33;;;;;;;3.30;1.30;;;;;;;24.86;25.68;102318.03;4917603;29;20036;-45
2022/04/03 07:28:01;;;;;;;3.78;0.98;;;;;;;24.92;25.77;102333.09;4917483;29;20024;-44
2022/04/03 07:30:30;;;;;;;3.80;0.80;;;;;;;24.92;25.68;102334.00;4917470;29;20130;-47
2022/04/03 07:32:58;;;;;;;1.55;0.68;;;;;;;24.98;25.70;102335.91;4917353;29;20079;-44
2022/04/03 07:35:27;;;;;;;2.53;0.90;;;;;;;25.01;25.85;102333.38;4917100;29;20024;-45
2022/04/03 07:37:55;;;;;;;1.65;0.90;;;;;;;25.06;26.15;102341.38;4917424;29;20040;-44
2022/04/03 07:40:23;;;;;;;1.48;0.73;;;;;;;25.10;25.82;102333.63;4917219;29;20064;-50
2022/04/03 07:42:53;;;;;;;1.33;0.65;;;;;;;25.12;25.84;102347.72;4917095;29;20083;-51
2022/04/03 07:45:21;;;;;;;1.02;0.60;;;;;;;25.15;26.09;102339.06;4917486;29;20374;-47
2022/04/03 07:47:51;;;;;;;4.45;0.98;;;;;;;25.21;26.01;102341.84;4916934;29;20028;-47
2022/04/03 07:50:20;;;;;;;3.88;0.80;;;;;;;25.22;25.99;102337.50;4898161;29;20035;-45
2022/04/03 07:52:48;;;;;;;1.73;1.05;;;;;;;25.26;25.88;102337.63;4914668;29;20055;-47
2022/04/03 07:55:17;;;;;;;2.70;0.90;;;;;;;25.34;26.10;102345.72;4914660;29;20035;-43
2022/04/03 07:57:44;;;;;;;3.13;1.00;;;;;;;25.37;26.22;102344.91;4889565;29;20044;-45
2022/04/03 08:00:13;;;;;;;3.78;0.98;;;;;;;25.39;25.87;102352.03;4912027;29;20050;-46
2022/04/03 08:02:42;;;;;;;1.92;0.65;;;;;;;25.46;26.17;102355.75;4909274;29;20529;-44
2022/04/03 08:05:10;;;;;;;2.30;0.73;;;;;;;25.53;26.19;102355.06;4917053;29;20083;-45
2022/04/03 08:07:44;;;;;;;4.90;0.57;;;;;;;25.59;26.04;102363.13;4905654;29;20024;-44
2022/04/03 08:10:13;;;;;;;3.05;0.77;;;;;;;25.61;26.13;102369.31;4925366;29;20034;-43
2022/04/03 08:12:41;;;;;;;5.03;0.75;;;;;;;25.61;26.15;102361.44;4926249;29;20024;-44
2022/04/03 08:15:11;;;;;;;2.83;1.00;;;;;;;25.70;26.21;102370.41;4923211;29;20024;-47
2022/04/03 08:17:40;;;;;;;2.10;0.60;;;;;;;25.76;26.03;102374.09;4908104;29;20080;-47
2022/04/03 08:20:09;;;;;;;4.80;0.70;;;;;;;25.77;26.24;102377.63;4923349;29;20111;-44
2022/04/03 08:22:39;;;;;;;6.82;0.77;;;;;;;25.82;26.21;102377.75;4923291;29;20032;-47
2022/04/03 08:25:07;;;;;;;3.55;0.65;;;;;;;25.85;26.08;102369.94;4917352;29;20091;-48
2022/04/03 08:27:54;;;;;;;1.70;0.45;;;;;;;25.91;26.08;102375.34;4929994;29;20114;-44
2022/04/03 08:30:29;;;;;;;1.88;0.52;;;;;;;25.92;26.05;102378.03;4938098;29;20079;-44
2022/04/03 08:32:56;;;;;;;;;;;;;;;26.04;25.75;102384.47;4949135;29;20028;-45
2022/04/03 08:35:26;;;;;;;2.45;0.88;;;;;;;26.04;26.03;102382.75;4940114;29;19915;-46
2022/04/03 08:37:54;;;;;;;1.30;0.70;;;;;;;26.06;25.72;102385.41;4938710;29;20091;-46
2022/04/03 08:40:24;;;;;;;1.20;0.52;;;;;;;26.06;25.91;102382.78;4952139;29;20039;-45
2022/04/03 08:42:52;;;;;;;0.88;0.40;;;;;;;26.12;25.84;102389.97;4940875;29;20028;-44
2022/04/03 08:45:20;;;;;;;0.80;0.50;;;;;;;26.14;25.94;102386.53;4951960;29;20035;-49
2022/04/03 08:47:50;;;;;;;161.25;42.78;;;;;;;26.17;26.33;102381.34;4938341;29;20040;-45
2022/04/03 08:50:18;;;;;;;130.18;35.17;;;;;;;26.21;26.11;102382.34;4935147;29;20027;-48
2022/04/03 08:52:48;;;;;;;134.07;33.38;;;;;;;26.24;26.24;102380.66;4920830;29;20370;-48
2022/04/03 08:55:17;;;;;;;112.70;32.92;;;;;;;26.30;26.14;102381.69;4951620;29;20028;-44
2022/04/03 08:57:44;;;;;;;101.63;29.85;;;;;;;26.36;25.95;102384.44;4942488;29;20034;-45
2022/04/03 09:00:13;;;;;;;110.28;30.38;;;;;;;26.39;25.99;102382.78;4951812;29;20035;-46
2022/04/03 09:02:43;;;;;;;96.40;28.20;;;;;;;26.45;26.01;102386.41;4954137;29;20099;-48
2022/04/03 09:05:11;;;;;;;93.63;26.83;;;;;;;26.46;25.80;102372.41;4921627;29;20047;-44
2022/04/03 09:07:40;;;;;;;93.75;25.98;;;;;;;26.47;25.61;102382.09;4918759;29;20042;-44
2022/04/03 09:10:10;;;;;;;93.07;24.02;;;;;;;26.49;25.63;102383.91;4926942;29;20031;-44
2022/04/03 09:12:45;;;;;;;71.47;22.13;;;;;;;26.53;25.42;102384.88;4945587;29;20032;-44
2022/04/03 09:15:15;;;;;;;70.95;22.33;;;;;;;26.50;25.29;102371.66;4947141;29;20039;-44
2022/04/03 09:17:49;;;;;;;70.13;20.60;;;;;;;26.54;25.37;102381.41;4944516;29;20046;-48
2022/04/03 09:20:20;;;;;;;70.28;21.10;;;;;;;26.52;25.33;102376.09;4939312;29;20036;-52
2022/04/03 09:22:52;;;;;;;54.85;16.52;;;;;;;26.52;25.27;102373.44;4907161;29;20039;-48
2022/04/03 09:25:26;;;;;;;58.22;17.40;;;;;;;26.52;25.02;102372.56;4920599;29;20038;-50
2022/04/03 09:27:55;;;;;;;57.90;16.97;;;;;;;26.50;24.77;102372.53;4942736;29;20218;-46
2022/04/03 09:30:29;;;;;;;46.03;15.55;;;;;;;26.51;24.72;102374.31;4944596;29;20059;-48
2022/04/03 09:32:58;;;;;;;43.63;13.80;;;;;;;26.53;24.99;102377.88;4946000;29;20031;-47
2022/04/03 09:35:28;;;;;;;44.17;14.32;;;;;;;26.53;25.00;102382.25;4921609;29;20568;-47
2022/04/03 09:38:16;;;;;;;40.13;12.95;;;;;;;26.54;25.25;102371.75;4927371;29;20032;-51
2022/04/03 09:40:49;;;;;;;39.05;12.73;;;;;;;26.55;25.22;102380.56;4943406;29;20175;-45
2022/04/03 09:43:22;;;;;;;43.70;11.38;;;;;;;26.62;25.27;102384.22;4949319;29;20024;-46
2022/04/03 09:45:51;;;;;;;33.05;11.02;;;;;;;26.60;25.22;102380.66;4944707;29;20027;-44
2022/04/03 09:48:32;;;;;;;33.47;10.77;;;;;;;26.59;24.98;102378.88;4938582;29;20090;-48
2022/04/03 09:51:02;;;;;;;35.08;10.85;;;;;;;26.65;24.90;102385.19;4945625;29;20040;-46
2022/04/03 09:53:52;;;;;;;32.45;9.10;;;;;;;26.64;25.26;102382.53;4944074;29;20032;-46
2022/04/03 09:56:24;;;;;;;25.67;8.43;;;;;;;26.65;25.11;102382.53;4944209;29;20442;-50
2022/04/03 09:58:52;;;;;;;28.25;9.02;;;;;;;26.66;25.30;102378.16;4941896;29;20042;-52
2022/04/03 10:01:26;;;;;;;24.52;8.32;;;;;;;26.67;25.06;102374.66;4944256;29;20157;-45
2022/04/03 10:03:55;;;;;;;28.08;8.68;;;;;;;26.66;25.21;102371.16;4940331;29;20094;-45
2022/04/03 10:06:24;;;;;;;24.38;7.82;;;;;;;26.65;25.26;102365.84;4941681;29;20063;-47
2022/04/03 10:08:54;;;;;;;24.35;7.72;;;;;;;26.71;25.21;102376.53;4953946;29;20055;-48
2022/04/03 10:11:23;;;;;;;24.85;7.05;;;;;;;26.72;25.24;102372.16;4956863;29;20397;-43
2022/04/03 10:13:51;;;;;;;22.27;7.70;;;;;;;26.72;25.39;102377.44;4945268;29;20027;-45
2022/04/03 10:16:20;;;;;;;17.63;6.00;;;;;;;26.74;24.99;102376.59;4954225;29;20030;-47
2022/04/03 10:18:50;;;;;;;20.00;6.70;;;;;;;26.76;25.40;102377.53;4955543;29;20031;-45
2022/04/03 10:21:25;;;;;;;17.15;5.57;;;;;;;26.84;25.04;102373.34;4956351;29;20476;-48
2022/04/03 10:23:56;;;;;;;22.02;5.07;;;;;;;26.82;24.70;102374.19;4939773;28;20027;-44
2022/04/03 10:26:25;;;;;;;18.13;4.70;;;;;;;26.77;24.47;102371.41;4955575;29;20038;-46
2022/04/03 10:28:56;;;;;;;16.42;4.45;;;;;;;26.75;24.71;102365.22;4939114;29;20047;-45
2022/04/03 10:31:24;;;;;;;13.50;4.25;;;;;;;26.77;24.55;102368.78;4939219;29;20491;-49
2022/04/03 10:33:53;;;;;;;11.30;4.65;;;;;;;26.67;24.69;102358.88;4939578;29;20429;-43
2022/04/03 10:36:27;;;;;;;12.40;4.15;;;;;;;26.75;24.57;102362.59;4956260;29;20025;-45
2022/04/03 10:39:06;;;;;;;11.77;3.70;;;;;;;26.76;24.74;102356.47;4956466;29;20110;-46
2022/04/03 10:41:36;;;;;;;9.27;3.72;;;;;;;26.74;24.83;102352.00;4918066;29;20024;-46
2022/04/03 10:44:24;;;;;;;9.32;3.58;;;;;;;26.78;25.02;102357.41;4918560;29;20071;-47
2022/04/03 10:47:11;;;;;;;9.77;3.33;;;;;;;26.80;24.76;102360.09;4917793;29;20032;-46
2022/04/03 10:49:43;;;;;;;8.82;3.22;;;;;;;26.80;24.93;102361.00;4914864;29;20064;-46
2022/04/03 10:52:26;;;;;;;9.55;3.35;;;;;;;26.81;24.87;102365.38;4901517;29;20036;-50
2022/04/03 10:54:57;;;;;;;9.35;2.90;;;;;;;26.79;24.80;102366.19;4918515;29;20032;-48
2022/04/03 10:57:45;;;;;;;9.00;3.05;;;;;;;26.82;24.92;102359.25;4917407;29;20472;-51
2022/04/03 11:00:14;;;;;;;10.27;3.28;;;;;;;26.84;24.76;102359.31;4914748;29;20099;-44
2022/04/03 11:02:45;;;;;;;6.65;2.42;;;;;;;26.83;24.67;102360.16;4917926;29;20036;-44
2022/04/03 11:05:24;;;;;;;11.75;3.30;;;;;;;26.83;25.05;102361.03;4900749;29;20058;-46
2022/04/03 11:08:03;;;;;;;6.55;1.98;;;;;;;26.87;25.01;102347.97;4900909;29;20434;-45
2022/04/03 11:10:54;;;;;;;6.80;1.90;;;;;;;26.87;24.97;102354.13;4917980;29;20573;-47
2022/04/03 11:13:31;;;;;;;4.47;2.13;;;;;;;26.85;24.79;102347.94;4917714;29;20029;-44
2022/04/03 11:16:02;;;;;;;3.97;1.80;;;;;;;26.84;24.84;102356.69;4900251;29;20028;-44
2022/04/03 11:18:47;;;;;;;7.63;2.63;;;;;;;26.84;24.76;102354.06;4901214;29;20107;-44
2022/04/03 11:21:16;;;;;;;;;;;;;;;26.95;24.85;102352.53;4900620;29;20024;-44
2022/04/03 11:24:03;;;;;;;5.03;1.45;;;;;;;26.93;24.96;102348.97;4917418;29;19915;-45
2022/04/03 11:26:33;;;;;;;4.55;1.48;;;;;;;26.90;24.54;102343.63;4917542;29;20386;-43
2022/04/03 11:29:02;;;;;;;6.93;2.00;;;;;;;26.87;24.82;102334.78;4917362;29;20055;-45
2022/04/03 11:31:31;;;;;;;3.05;1.50;;;;;;;26.90;24.71;102338.38;4900245;29;20398;-46
2022/04/03 11:34:00;;;;;;;5.00;1.63;;;;;;;26.82;24.74;102327.66;4900488;29;20426;-45
2022/04/03 11:36:33;;;;;;;3.38;1.60;;;;;;;26.86;24.67;102330.38;4917102;29;20032;-44